Time;durP1;ratioP1;P1;durP2;ratioP2;P2;SDS_P1;SDS_P2;PMS_P1;PMS_P2;Temp;Humidity;BMP_temperature;BMP_pressure;BME280_temperature;BME280_humidity;BME280_pressure;Samples;Min_cycle;Max_cycle;Signal;HPM_P1;HPM_P2
2021/05/25 00:00:27;;;;;;;;;0.75;0.75;;;;;27.62;66.45;98703.66;4918419;29;8869;-70
2021/05/25 00:02:56;;;;;;;;;0.00;0.00;;;;;27.69;67.43;98711.81;4918311;29;8878;-70
2021/05/25 00:05:30;;;;;;;;;1.00;1.00;;;;;27.70;66.19;98721.50;4919088;29;8851;-70
2021/05/25 00:07:59;;;;;;;;;1.75;1.75;;;;;27.50;66.47;98698.53;4918217;29;8885;-70
2021/05/25 00:10:30;;;;;;;;;1.00;1.00;;;;;27.66;66.41;98728.84;4918403;29;8854;-70
2021/05/25 00:13:00;;;;;;;;;0.75;0.75;;;;;27.68;66.63;98725.75;4918404;29;8854;-70
2021/05/25 00:15:31;;;;;;;;;1.00;1.00;;;;;27.64;67.22;98722.25;4918099;29;8862;-70
2021/05/25 00:18:00;;;;;;;;;0.75;0.75;;;;;27.74;66.61;98738.56;4918085;29;8874;-71
2021/05/25 00:20:29;;;;;;;;;1.00;1.00;;;;;27.72;66.52;98737.38;4917910;29;8861;-71
2021/05/25 00:22:57;;;;;;;;;1.00;1.00;;;;;27.69;66.80;98744.34;4917928;29;8871;-71
2021/05/25 00:25:26;;;;;;;;;0.75;0.75;;;;;27.78;66.57;98752.91;4918069;29;8902;-70
2021/05/25 00:27:55;;;;;;;;;0.75;0.75;;;;;27.81;66.97;98748.66;4917860;29;8866;-70
2021/05/25 00:30:24;;;;;;;;;1.00;1.00;;;;;27.87;66.73;98753.31;4917813;29;8957;-71
2021/05/25 00:32:53;;;;;;;;;0.75;0.75;;;;;27.89;67.13;98752.94;4917805;29;8862;-71
2021/05/25 00:35:22;;;;;;;;;1.00;1.00;;;;;27.89;66.51;98750.22;4917038;29;8869;-71
2021/05/25 00:37:50;;;;;;;;;1.00;1.00;;;;;27.87;65.52;98758.75;4917677;29;9638;-71
2021/05/25 00:40:19;;;;;;;;;0.00;0.00;;;;;27.81;66.77;98748.66;4917563;29;8960;-71
2021/05/25 00:42:48;;;;;;;;;1.00;1.00;;;;;27.81;66.90;98757.56;4918324;29;8922;-71
2021/05/25 00:45:18;;;;;;;;;0.75;0.75;;;;;27.77;66.68;98764.91;4917571;29;8962;-71
2021/05/25 00:47:47;;;;;;;;;0.75;0.75;;;;;27.81;66.84;98762.97;4918340;29;8899;-71
2021/05/25 00:50:24;;;;;;;;;0.75;0.75;;;;;27.82;66.69;98767.25;4917709;29;8869;-71
2021/05/25 00:52:57;;;;;;;;;1.00;1.00;;;;;27.78;66.57;98761.03;4917297;29;8891;-71
2021/05/25 00:55:31;;;;;;;;;1.00;1.00;;;;;27.75;65.57;98756.38;4917565;29;8885;-71
2021/05/25 00:58:05;;;;;;;;;1.00;1.00;;;;;27.76;64.30;98771.47;4917228;29;8870;-71
2021/05/25 01:00:37;;;;;;;;;2.00;2.00;;;;;27.70;67.08;98769.50;4917110;29;8851;-71
2021/05/25 01:03:08;;;;;;;;;2.25;2.25;;;;;27.65;66.42;98769.88;4917228;29;8887;-72
2021/05/25 01:05:37;;;;;;;;;2.50;2.50;;;;;27.65;65.58;98778.00;4916416;29;8897;-73
2021/05/25 01:08:07;;;;;;;;;2.50;2.50;;;;;27.69;65.88;98781.50;4916764;29;8874;-73
2021/05/25 01:10:39;;;;;;;;;1.75;1.75;;;;;27.75;67.12;98777.28;4915259;29;8871;-73
2021/05/25 01:13:12;;;;;;;;;3.00;3.00;;;;;27.80;66.24;98779.63;4915209;29;8974;-73
2021/05/25 01:15:41;;;;;;;;;3.00;3.00;;;;;27.71;64.40;98765.66;4915921;29;8867;-73
2021/05/25 01:18:10;;;;;;;;;3.00;3.00;;;;;27.70;65.60;98764.88;4915873;29;8862;-73
2021/05/25 01:20:40;;;;;;;;;2.00;2.00;;;;;27.83;67.43;98787.00;4915295;29;8870;-74
2021/05/25 01:23:10;;;;;;;;;3.00;3.00;;;;;27.80;66.48;98774.19;4914381;29;8885;-73
2021/05/25 01:25:42;;;;;;;;;3.00;3.00;;;;;27.76;67.59;98768.00;4915581;29;8875;-72
2021/05/25 01:28:11;;;;;;;;;3.00;3.00;;;;;27.73;67.22;98766.03;4915438;29;8941;-74
2021/05/25 01:30:45;;;;;;;;;3.00;3.00;;;;;27.71;67.09;98768.34;4915477;29;8863;-72
2021/05/25 01:33:15;;;;;;;;;2.75;2.75;;;;;27.69;66.73;98766.03;4914445;29;8871;-73
2021/05/25 01:35:44;;;;;;;;;2.00;2.00;;;;;27.64;66.19;98752.84;4915133;29;9625;-76
2021/05/25 01:38:14;;;;;;;;;1.25;1.25;;;;;27.64;67.19;98760.97;4914778;29;8874;-74
2021/05/25 01:40:44;;;;;;;;;1.25;1.25;;;;;27.61;66.40;98756.31;4917255;29;8949;-77
2021/05/25 01:43:14;;;;;;;;;1.00;1.00;;;;;27.58;66.86;98752.38;4914123;29;8875;-75
2021/05/25 01:45:44;;;;;;;;;1.00;1.00;;;;;27.65;65.65;98761.75;4915370;29;8855;-73
2021/05/25 01:48:13;;;;;;;;;0.00;0.00;;;;;27.73;66.78;98764.09;4915329;29;8890;-73
2021/05/25 01:50:42;;;;;;;;;1.00;1.00;;;;;27.81;66.84;98765.69;4914982;29;8937;-74
2021/05/25 01:53:20;;;;;;;;;0.00;0.00;;;;;27.90;66.71;98766.13;4913942;29;8883;-71
2021/05/25 01:55:58;;;;;;;;;0.00;0.00;;;;;27.97;64.48;98778.16;4914569;29;8933;-71
2021/05/25 01:58:30;;;;;;;;;0.00;0.00;;;;;27.98;65.40;98763.44;4914885;29;8878;-72
2021/05/25 02:01:07;;;;;;;;;0.75;0.75;;;;;28.11;67.45;98767.34;4914988;29;8870;-73
2021/05/25 02:03:38;;;;;;;;;0.00;0.00;;;;;28.19;65.38;98777.84;4912686;29;8934;-74
2021/05/25 02:06:09;;;;;;;;;1.00;1.00;;;;;28.19;65.65;98775.13;4914369;29;8953;-75
2021/05/25 02:08:39;;;;;;;;;0.25;0.25;;;;;28.20;65.66;98770.47;4914220;29;8930;-72
2021/05/25 02:11:08;;;;;;;;;0.50;0.50;;;;;28.19;66.94;98779.78;4913839;29;8847;-73
2021/05/25 02:13:39;;;;;;;;;0.25;0.25;;;;;28.13;65.56;98779.38;4913622;29;8890;-73
2021/05/25 02:16:11;;;;;;;;;0.00;0.00;;;;;28.10;66.82;98784.78;4914009;29;8859;-72
2021/05/25 02:18:45;;;;;;;;;0.00;0.00;;;;;28.05;64.83;98779.72;4914655;29;8859;-72
2021/05/25 02:21:17;;;;;;;;;0.00;0.00;;;;;27.98;65.70;98775.06;4915348;29;8851;-72
2021/05/25 02:23:47;;;;;;;;;0.25;0.25;;;;;28.02;64.36;98781.28;4915139;29;8883;-70
2021/05/25 02:26:17;;;;;;;;;1.00;1.00;;;;;28.02;65.41;98783.97;4912613;29;8866;-71
2021/05/25 02:28:47;;;;;;;;;0.00;0.00;;;;;28.02;66.08;98769.66;4913374;29;8878;-72
2021/05/25 02:31:16;;;;;;;;;0.00;0.00;;;;;28.02;65.42;98761.50;4913986;29;9720;-72
2021/05/25 02:33:44;;;;;;;;;0.00;0.00;;;;;28.10;64.63;98769.28;4916202;29;8867;-73
2021/05/25 02:36:13;;;;;;;;;1.00;1.00;;;;;28.09;64.00;98765.03;4914039;29;8970;-72
2021/05/25 02:38:41;;;;;;;;;0.50;0.50;;;;;28.18;63.42;98773.56;4913166;29;8885;-70
2021/05/25 02:41:10;;;;;;;;;1.25;1.25;;;;;28.19;62.78;98771.66;4913355;29;8859;-72
2021/05/25 02:43:39;;;;;;;;;1.00;1.00;;;;;28.21;62.68;98774.75;4912674;29;8871;-73
2021/05/25 02:46:07;;;;;;;;;1.00;1.00;;;;;28.23;62.58;98772.47;4913471;29;8909;-73
2021/05/25 02:48:36;;;;;;;;;0.75;0.75;;;;;28.07;62.82;98753.00;4912813;29;8887;-71
2021/05/25 02:51:05;;;;;;;;;2.25;2.25;;;;;28.17;62.85;98774.72;4913229;29;8839;-73
2021/05/25 02:53:33;;;;;;;;;1.75;1.75;;;;;28.14;63.44;98770.06;4914696;29;8995;-73
2021/05/25 02:56:25;;;;;;;;;1.00;1.00;;;;;28.14;63.98;98767.38;4914256;29;8910;-70
2021/05/25 02:58:54;;;;;;;;;2.00;2.00;;;;;28.16;62.86;98769.69;4915655;29;8859;-73
2021/05/25 03:01:23;;;;;;;;;2.75;2.75;;;;;28.13;62.69;98765.03;4917517;29;8878;-72
2021/05/25 03:03:52;;;;;;;;;1.75;1.75;;;;;28.10;62.63;98760.38;4917424;29;8867;-74
2021/05/25 03:06:20;;;;;;;;;2.75;2.75;;;;;28.02;62.59;98745.25;4917077;29;8961;-72
2021/05/25 03:08:49;;;;;;;;;1.75;1.75;;;;;28.05;62.54;98752.63;4916095;29;8858;-73
2021/05/25 03:11:17;;;;;;;;;1.50;1.50;;;;;27.97;62.91;98754.53;4916877;29;8913;-73
2021/05/25 03:13:47;;;;;;;;;1.00;1.00;;;;;27.78;63.15;98733.16;4916590;29;8929;-73
2021/05/25 03:16:17;;;;;;;;;1.75;1.75;;;;;27.86;63.16;98742.88;4917455;29;8979;-72
2021/05/25 03:18:46;;;;;;;;;3.25;2.75;;;;;27.80;63.42;98744.38;4916703;29;8871;-73
2021/05/25 03:21:14;;;;;;;;;2.75;2.75;;;;;27.72;64.15;98730.03;4917035;29;8886;-75
2021/05/25 03:23:43;;;;;;;;;2.25;2.25;;;;;27.79;63.68;98735.47;4917188;29;8997;-73
2021/05/25 03:26:12;;;;;;;;;1.00;1.00;;;;;27.83;63.53;98740.91;4916448;29;8871;-73
2021/05/25 03:28:41;;;;;;;;;1.00;1.00;;;;;27.84;63.31;98737.03;4917023;29;8870;-73
2021/05/25 03:31:10;;;;;;;;;1.00;1.00;;;;;27.82;63.42;98737.44;4917159;29;8949;-74
2021/05/25 03:33:39;;;;;;;;;2.00;2.00;;;;;27.68;63.58;98717.63;4917277;29;8871;-71
2021/05/25 03:36:09;;;;;;;;;1.00;1.00;;;;;27.61;63.78;98715.66;4917165;29;8868;-71
2021/05/25 03:38:38;;;;;;;;;1.00;1.00;;;;;27.63;64.39;98736.97;4916638;29;8901;-74
2021/05/25 03:41:06;;;;;;;;;1.00;1.00;;;;;27.57;64.33;98733.81;4916602;29;8886;-71
2021/05/25 03:43:35;;;;;;;;;2.00;2.00;;;;;27.56;64.59;98729.53;4916775;29;8867;-72
2021/05/25 03:46:04;;;;;;;;;1.75;1.75;;;;;27.53;64.61;98733.00;4917160;29;9003;-72
2021/05/25 03:48:33;;;;;;;;;0.25;0.25;;;;;27.57;64.70;98734.56;4916453;29;8873;-73
2021/05/25 03:51:01;;;;;;;;;2.00;2.00;;;;;27.58;64.90;98733.41;4916464;29;8863;-72
2021/05/25 03:53:31;;;;;;;;;0.75;0.75;;;;;27.55;64.79;98730.69;4916858;29;8875;-73
2021/05/25 03:58:49;;;;;;;;;2.50;2.50;;;;;27.42;65.04;98726.75;4916142;29;8863;-73
2021/05/25 04:01:28;;;;;;;;;1.25;1.25;;;;;27.41;65.38;98736.81;4915190;29;8934;-72
2021/05/25 04:03:57;;;;;;;;;1.25;1.25;;;;;27.32;65.66;98746.44;4916807;29;8890;-73
2021/05/25 04:06:26;;;;;;;;;1.75;1.75;;;;;27.25;65.84;98734.44;4916963;29;9723;-76
2021/05/25 04:08:55;;;;;;;;;1.25;1.25;;;;;27.21;66.08;98736.34;4916254;29;8877;-73
2021/05/25 04:11:24;;;;;;;;;2.00;2.00;;;;;27.25;66.01;98730.94;4914923;29;8870;-74
2021/05/25 04:13:53;;;;;;;;;1.75;1.75;;;;;27.24;65.94;98727.47;4916019;29;8888;-74
2021/05/25 04:16:22;;;;;;;;;1.00;1.00;;;;;27.35;66.19;98727.50;4916096;29;8883;-73
2021/05/25 04:18:50;;;;;;;;;1.25;1.25;;;;;27.27;65.86;98715.09;4915632;29;8957;-72
2021/05/25 04:21:19;;;;;;;;;1.75;1.75;;;;;27.33;65.96;98723.59;4897639;29;8893;-74
2021/05/25 04:23:48;;;;;;;;;1.75;1.75;;;;;27.31;65.93;98718.56;4897862;29;8919;-75
2021/05/25 04:26:17;;;;;;;;;1.00;1.00;;;;;27.21;66.87;98703.84;4898079;29;8869;-73
2021/05/25 04:28:46;;;;;;;;;1.00;1.00;;;;;27.30;66.04;98709.66;4897709;29;8937;-74
2021/05/25 04:31:15;;;;;;;;;0.75;0.75;;;;;27.24;66.12;98703.09;4897596;29;8861;-72
2021/05/25 04:33:43;;;;;;;;;1.00;1.00;;;;;27.34;65.91;98712.41;4897500;29;9048;-71
2021/05/25 04:36:12;;;;;;;;;0.75;0.75;;;;;27.34;66.07;98706.19;4897512;29;8853;-74
2021/05/25 04:38:41;;;;;;;;;1.00;1.00;;;;;27.35;66.21;98699.63;4896725;29;8896;-73
2021/05/25 04:41:09;;;;;;;;;0.50;0.50;;;;;27.28;66.28;98700.41;4897482;29;8865;-72
2021/05/25 04:43:38;;;;;;;;;0.75;0.75;;;;;27.39;65.96;98697.72;4909011;29;8909;-73
2021/05/25 04:46:07;;;;;;;;;0.00;0.00;;;;;27.40;65.90;98696.56;4914617;29;8871;-72
2021/05/25 04:48:36;;;;;;;;;1.00;1.00;;;;;27.38;66.06;98693.47;4910667;29;8978;-72
2021/05/25 04:51:05;;;;;;;;;1.00;1.00;;;;;27.33;65.88;98689.16;4914763;29;8886;-73
2021/05/25 04:53:33;;;;;;;;;0.00;0.00;;;;;27.32;66.18;98694.97;4914170;29;9573;-70
2021/05/25 04:56:03;;;;;;;;;0.00;0.00;;;;;27.24;66.34;98684.13;4916217;29;8867;-71
2021/05/25 04:58:31;;;;;;;;;0.00;0.00;;;;;27.27;66.14;98682.59;4916767;29;8934;-71
2021/05/25 05:01:00;;;;;;;;;0.00;0.00;;;;;27.30;66.11;98681.84;4916660;29;8965;-71
2021/05/25 05:03:30;;;;;;;;;0.00;0.00;;;;;27.31;66.25;98683.34;4913457;29;8855;-72
2021/05/25 05:05:59;;;;;;;;;0.00;0.00;;;;;27.33;66.31;98678.34;4897541;29;8993;-72
2021/05/25 05:08:27;;;;;;;;;0.00;0.00;;;;;27.32;66.52;98662.47;4904761;29;8881;-70
2021/05/25 05:10:56;;;;;;;;;0.00;0.00;;;;;27.40;66.22;98658.63;4916024;29;8914;-71
2021/05/25 05:13:25;;;;;;;;;0.00;0.00;;;;;27.47;65.95;98664.88;4916923;29;9603;-70
2021/05/25 05:15:54;;;;;;;;;0.50;0.50;;;;;27.52;65.92;98671.84;4915810;29;8855;-70
2021/05/25 05:18:22;;;;;;;;;0.25;0.25;;;;;27.49;65.92;98667.97;4915012;29;8831;-70
2021/05/25 05:20:52;;;;;;;;;1.00;1.00;;;;;27.44;66.20;98659.44;4914707;29;8858;-70
2021/05/25 05:23:20;;;;;;;;;1.00;1.00;;;;;27.43;66.22;98666.78;4914711;29;8848;-70
2021/05/25 05:25:49;;;;;;;;;1.25;1.25;;;;;27.41;66.21;98666.38;4915436;29;8859;-70
2021/05/25 05:28:18;;;;;;;;;0.00;0.00;;;;;27.39;66.43;98660.56;4914212;29;8918;-71
2021/05/25 05:30:46;;;;;;;;;1.00;1.00;;;;;27.27;66.98;98648.16;4914907;29;8867;-71
2021/05/25 05:33:15;;;;;;;;;0.25;0.25;;;;;27.38;66.57;98659.00;4912074;29;8859;-72
2021/05/25 05:35:44;;;;;;;;;1.00;1.00;;;;;27.36;66.51;98650.50;4912324;29;8966;-72
2021/05/25 05:38:13;;;;;;;;;0.75;0.75;;;;;27.39;66.60;98654.38;4908757;29;8910;-72
2021/05/25 05:40:42;;;;;;;;;1.00;1.00;;;;;27.37;66.51;98648.56;4908483;29;8951;-72
2021/05/25 05:43:11;;;;;;;;;2.00;2.00;;;;;27.37;66.50;98657.47;4911164;29;8863;-72
2021/05/25 05:45:41;;;;;;;;;0.25;0.25;;;;;27.23;66.71;98631.13;4910509;29;8875;-71
2021/05/25 05:48:10;;;;;;;;;0.75;0.75;;;;;27.38;66.74;98653.59;4909169;29;8851;-71
2021/05/25 05:50:38;;;;;;;;;1.00;1.00;;;;;27.40;66.43;98647.81;4912102;29;8886;-70
2021/05/25 05:53:14;;;;;;;;;1.00;1.00;;;;;27.02;66.75;98590.41;4911823;29;8961;-73
2021/05/25 05:55:44;;;;;;;;;0.25;0.25;;;;;27.30;66.48;98623.00;4911044;29;8881;-73
2021/05/25 05:58:14;;;;;;;;;0.00;0.00;;;;;27.35;67.40;98624.56;4902323;29;8899;-72
2021/05/25 06:00:52;;;;;;;;;1.25;1.25;;;;;27.29;67.77;98607.94;4893168;29;8929;-71
2021/05/25 06:03:21;;;;;;;;;1.00;1.00;;;;;27.47;67.85;98635.06;4904835;29;8881;-70
2021/05/25 06:05:50;;;;;;;;;28.00;28.00;;;;;27.46;66.39;98632.72;4912961;29;8859;-73
2021/05/25 06:08:18;;;;;;;;;2.00;2.00;;;;;27.34;67.99;98624.94;4912352;29;9463;-72
2021/05/25 06:10:51;;;;;;;;;3.00;3.00;;;;;27.43;67.84;98634.28;4914527;29;9011;-70
2021/05/25 06:13:24;;;;;;;;;1.00;1.00;;;;;27.43;67.93;98626.16;4913381;29;8866;-73
2021/05/25 06:15:55;;;;;;;;;1.75;1.75;;;;;27.38;66.94;98595.94;4912294;29;8891;-73
2021/05/25 06:18:24;;;;;;;;;0.00;0.00;;;;;27.44;66.82;98597.13;4911571;29;8867;-72
2021/05/25 06:20:54;;;;;;;;;0.00;0.00;;;;;27.59;66.53;98614.97;4914181;29;8953;-73
2021/05/25 06:23:23;;;;;;;;;0.00;0.00;;;;;27.63;66.14;98596.81;4913780;29;8862;-70
2021/05/25 06:25:52;;;;;;;;;0.00;0.00;;;;;27.66;66.12;98592.56;4913953;29;8897;-72
2021/05/25 06:28:22;;;;;;;;;0.00;0.00;;;;;27.67;66.26;98584.06;4914081;29;8874;-76
2021/05/25 06:30:51;;;;;;;;;0.00;0.00;;;;;27.69;67.28;98579.03;4911560;29;8858;-71
2021/05/25 06:33:20;;;;;;;;;0.00;0.00;;;;;27.72;66.57;98575.56;4914572;29;8859;-73
2021/05/25 06:35:49;;;;;;;;;0.00;0.00;;;;;27.74;66.33;98575.16;4914912;29;8871;-71
2021/05/25 06:38:19;;;;;;;;;0.75;0.75;;;;;27.76;65.89;98568.19;4916534;29;9005;-71
2021/05/25 06:40:48;;;;;;;;;0.50;0.50;;;;;27.82;65.89;98569.38;4917774;29;8882;-72
2021/05/25 06:43:16;;;;;;;;;0.00;0.00;;;;;27.87;67.38;98563.56;4914694;29;8869;-72
2021/05/25 06:45:46;;;;;;;;;0.25;0.25;;;;;27.88;65.99;98559.69;4914532;29;8879;-71
2021/05/25 06:48:15;;;;;;;;;0.00;0.00;;;;;27.85;66.75;98551.56;4915684;29;8855;-72
2021/05/25 06:50:44;;;;;;;;;0.75;0.75;;;;;27.86;66.37;98551.19;4915704;29;8859;-71
2021/05/25 06:53:15;;;;;;;;;0.00;0.00;;;;;27.78;65.94;98533.34;4915173;29;8855;-71
2021/05/25 06:55:44;;;;;;;;;1.00;1.00;;;;;27.96;65.78;98555.06;4915678;29;8847;-71
2021/05/25 06:58:13;;;;;;;;;0.00;0.00;;;;;28.00;66.29;98549.63;4913196;29;9727;-71
2021/05/25 07:00:41;;;;;;;;;0.00;0.00;;;;;28.02;67.00;98544.59;4913675;29;8883;-72
2021/05/25 07:03:10;;;;;;;;;0.00;0.00;;;;;28.03;66.83;98541.50;4913747;29;8871;-72
2021/05/25 07:05:39;;;;;;;;;0.00;0.00;;;;;27.98;67.04;98533.75;4913977;29;8897;-72
2021/05/25 07:08:07;;;;;;;;;0.00;0.00;;;;;28.08;66.21;98535.69;4914044;29;8879;-72
2021/05/25 07:10:36;;;;;;;;;0.00;0.00;;;;;28.12;65.80;98533.75;4913878;29;8871;-72
2021/05/25 07:13:07;;;;;;;;;0.00;0.00;;;;;27.97;65.58;98494.25;4914546;29;8921;-72
2021/05/25 07:15:37;;;;;;;;;0.00;0.00;;;;;28.17;65.17;98513.59;4914681;29;8958;-72
2021/05/25 07:18:07;;;;;;;;;0.75;0.75;;;;;28.29;65.29;98517.88;4914492;29;8995;-71
2021/05/25 07:20:35;;;;;;;;;0.00;0.00;;;;;28.34;65.47;98514.78;4913506;29;8871;-71
2021/05/25 07:23:06;;;;;;;;;0.00;0.00;;;;;28.39;65.28;98500.81;4914591;29;8863;-72
2021/05/25 07:25:34;;;;;;;;;0.25;0.25;;;;;28.47;65.71;98505.81;4914344;29;9616;-70
2021/05/25 07:28:03;;;;;;;;;0.00;0.00;;;;;28.56;65.07;98497.28;4915062;29;8847;-71
2021/05/25 07:30:32;;;;;;;;;0.00;0.00;;;;;28.67;64.82;98500.69;4915375;29;8885;-71
2021/05/25 07:33:01;;;;;;;;;0.00;0.00;;;;;28.82;65.39;98485.13;4915663;29;8863;-70
2021/05/25 07:35:30;;;;;;;;;0.00;0.00;;;;;28.98;64.56;98487.44;4915571;29;8855;-70
2021/05/25 07:37:59;;;;;;;;;0.25;0.25;;;;;29.11;64.33;98473.00;4916331;29;8974;-70
2021/05/25 07:40:28;;;;;;;;;0.00;0.00;;;;;29.30;63.83;98470.94;4915218;29;8874;-71
2021/05/25 07:42:57;;;;;;;;;0.00;0.00;;;;;29.42;63.47;98457.69;4915489;29;8934;-71
2021/05/25 07:45:26;;;;;;;;;0.00;0.00;;;;;29.52;63.53;98447.94;4917946;29;8862;-71
2021/05/25 07:47:54;;;;;;;;;0.25;0.25;;;;;29.67;62.90;98446.63;4917004;29;8862;-71
2021/05/25 07:50:23;;;;;;;;;0.00;0.00;;;;;29.75;62.83;98439.97;4918201;29;9714;-71
2021/05/25 07:52:55;;;;;;;;;0.00;0.00;;;;;29.85;63.32;98425.50;4918525;29;8842;-71
2021/05/25 07:55:31;;;;;;;;;0.00;0.00;;;;;30.02;62.84;98423.78;4918415;29;8854;-70
2021/05/25 07:58:00;;;;;;;;;0.00;0.00;;;;;30.21;62.00;98411.53;4918606;29;8882;-70
2021/05/25 08:00:32;;;;;;;;;0.00;0.00;;;;;30.40;61.65;98413.66;4918484;29;8886;-70
2021/05/25 08:03:01;;;;;;;;;0.00;0.00;;;;;30.52;61.82;98399.50;4918384;29;8853;-71
2021/05/25 08:05:31;;;;;;;;;0.00;0.00;;;;;30.51;60.74;98373.47;4918380;29;8894;-71
2021/05/25 08:08:02;;;;;;;;;1.00;1.00;;;;;30.64;61.11;98383.84;4918253;29;8855;-71
2021/05/25 08:10:32;;;;;;;;;0.00;0.00;;;;;30.66;61.23;98382.25;4918275;29;8966;-71
2021/05/25 08:13:02;;;;;;;;;0.00;0.00;;;;;30.60;60.85;98378.44;4918232;29;8878;-71
2021/05/25 08:15:33;;;;;;;;;0.20;0.20;;;;;30.51;61.08;98373.47;4918090;29;8863;-71
2021/05/25 08:20:39;;;;;;;;;0.20;0.20;;;;;30.40;61.24;98359.22;4918062;29;8854;-70
2021/05/25 08:23:24;;;;;;;;;0.00;0.00;;;;;30.39;61.83;98356.91;4918180;29;8969;-70
2021/05/25 08:25:56;;;;;;;;;0.00;0.00;;;;;30.37;62.02;98353.84;4918032;29;8859;-70
2021/05/25 08:28:25;;;;;;;;;0.60;0.60;;;;;30.26;61.58;98345.81;4918196;29;8885;-71
2021/05/25 08:30:53;;;;;;;;;0.60;0.60;;;;;30.18;62.09;98344.34;4918367;29;8934;-70
2021/05/25 08:33:22;;;;;;;;;0.00;0.00;;;;;30.06;62.18;98339.44;4917971;29;8889;-71
2021/05/25 08:35:52;;;;;;;;;0.80;0.80;;;;;29.99;62.24;98336.75;4917749;29;8900;-71
2021/05/25 08:38:22;;;;;;;;;0.60;0.60;;;;;29.90;62.08;98334.56;4917681;29;9581;-71
2021/05/25 08:40:53;;;;;;;;;0.80;0.80;;;;;29.85;62.07;98332.28;4917638;29;8855;-70
2021/05/25 08:43:23;;;;;;;;;0.00;0.00;;;;;29.74;62.40;98318.81;4917643;29;8932;-70
2021/05/25 08:45:52;;;;;;;;;0.00;0.00;;;;;29.77;62.46;98319.94;4917769;29;8855;-70
2021/05/25 08:48:22;;;;;;;;;0.60;0.60;;;;;29.82;62.96;98333.09;4917561;29;8862;-71
2021/05/25 08:50:59;;;;;;;;;1.00;1.00;;;;;29.85;62.23;98326.84;4917712;29;8878;-71
2021/05/25 08:53:30;;;;;;;;;0.00;0.00;;;;;29.82;62.07;98325.72;4917481;29;8867;-71
2021/05/25 08:55:59;;;;;;;;;0.60;0.60;;;;;29.77;62.27;98318.00;4917365;29;8879;-71
2021/05/25 08:58:28;;;;;;;;;0.00;0.00;;;;;29.78;62.14;98316.81;4918108;29;8850;-70
2021/05/25 09:00:58;;;;;;;;;0.00;0.00;;;;;29.72;61.97;98315.72;4917278;29;8855;-71
2021/05/25 09:03:29;;;;;;;;;0.00;0.00;;;;;29.62;62.50;98316.59;4917574;29;8865;-71
2021/05/25 09:06:07;;;;;;;;;0.00;0.00;;;;;29.58;62.51;98307.72;4917458;29;8855;-71
2021/05/25 09:08:37;;;;;;;;;0.00;0.00;;;;;29.52;62.25;98306.59;4917446;29;8918;-71
2021/05/25 09:11:09;;;;;;;;;0.60;0.60;;;;;29.62;62.27;98313.09;4917174;29;8912;-71
2021/05/25 09:13:38;;;;;;;;;0.40;0.40;;;;;29.57;62.31;98311.59;4917167;29;8889;-71
2021/05/25 09:16:10;;;;;;;;;0.40;0.40;;;;;29.61;62.27;98314.28;4917148;29;8855;-71
2021/05/25 09:18:50;;;;;;;;;0.00;0.00;;;;;29.65;62.37;98315.03;4917209;29;8906;-71
2021/05/25 09:21:30;;;;;;;;;0.00;0.00;;;;;29.69;62.31;98313.03;4917223;29;9599;-71
2021/05/25 09:24:01;;;;;;;;;1.50;1.50;;;;;29.69;61.92;98308.38;4916839;29;8843;-71
2021/05/25 09:26:39;;;;;;;;;1.25;1.25;;;;;29.65;62.37;98310.34;4916880;29;8913;-71
2021/05/25 09:29:09;;;;;;;;;0.80;0.80;;;;;29.62;62.21;98307.69;4916766;29;8870;-71
2021/05/25 09:31:44;;;;;;;;;1.80;1.80;;;;;29.74;62.30;98313.38;4916775;29;8870;-71
2021/05/25 09:34:15;;;;;;;;;0.80;0.80;;;;;29.86;62.10;98318.28;4917505;29;8870;-71
2021/05/25 09:36:59;;;;;;;;;0.60;0.60;;;;;29.93;61.78;98309.25;4916949;29;8873;-71
2021/05/25 09:39:29;;;;;;;;;1.00;1.00;;;;;29.97;61.50;98309.97;4916592;29;8855;-71
2021/05/25 09:42:00;;;;;;;;;1.25;1.25;;;;;29.94;61.73;98301.88;4916502;29;8878;-71
2021/05/25 09:44:29;;;;;;;;;1.00;1.00;;;;;30.02;61.92;98306.84;4916573;29;8862;-71
2021/05/25 09:47:02;;;;;;;;;0.20;0.20;;;;;30.04;61.44;98307.19;4916999;29;8926;-71
2021/05/25 09:49:32;;;;;;;;;0.80;0.80;;;;;30.14;61.30;98305.53;4916403;29;8851;-71
2021/05/25 09:52:09;;;;;;;;;1.50;1.50;;;;;30.16;61.51;98316.78;4916410;29;9623;-71
2021/05/25 09:54:40;;;;;;;;;1.00;1.00;;;;;30.20;61.30;98320.22;4916641;29;8835;-71
2021/05/25 09:57:08;;;;;;;;;0.60;0.60;;;;;30.11;61.30;98301.69;4916384;29;8859;-71
2021/05/25 09:59:39;;;;;;;;;2.40;1.80;;;;;30.29;61.24;98317.00;4915486;29;8843;-71
2021/05/25 10:02:21;;;;;;;;;2.00;2.00;;;;;30.28;60.96;98318.19;4916487;29;8858;-71
2021/05/25 10:05:06;;;;;;;;;1.00;1.00;;;;;30.26;61.09;98321.31;4916629;29;8878;-71
2021/05/25 10:07:36;;;;;;;;;0.60;0.60;;;;;30.21;61.13;98310.88;4915408;29;8855;-71
2021/05/25 10:10:07;;;;;;;;;1.00;1.00;;;;;30.20;60.82;98325.66;4916119;29;8835;-71
2021/05/25 10:12:37;;;;;;;;;1.00;1.00;;;;;30.14;60.81;98314.47;4914990;29;8843;-71
2021/05/25 10:15:07;;;;;;;;;0.00;0.00;;;;;30.13;60.36;98325.75;4916425;29;8846;-71
2021/05/25 10:17:46;;;;;;;;;0.00;0.00;;;;;30.15;60.75;98326.13;4916048;29;8875;-71
2021/05/25 10:20:25;;;;;;;;;0.00;0.00;;;;;30.14;60.84;98327.28;4916077;29;9618;-71
2021/05/25 10:22:56;;;;;;;;;0.60;0.60;;;;;30.15;59.63;98323.41;4915874;29;8976;-71
2021/05/25 10:25:31;;;;;;;;;0.00;0.00;;;;;30.17;60.04;98326.47;4915984;29;8847;-71
2021/05/25 10:28:05;;;;;;;;;1.00;1.00;;;;;30.14;60.02;98316.41;4915916;29;8858;-71
2021/05/25 10:30:37;;;;;;;;;0.60;0.60;;;;;30.17;60.30;98321.03;4916362;29;8854;-71
2021/05/25 10:33:25;;;;;;;;;1.00;1.00;;;;;30.23;60.46;98324.84;4915892;29;8878;-71
2021/05/25 10:36:06;;;;;;;;;0.00;0.00;;;;;30.18;60.06;98317.91;4915908;29;8853;-71
2021/05/25 10:38:53;;;;;;;;;0.00;0.00;;;;;30.32;59.74;98333.28;4915937;29;8858;-71
2021/05/25 10:41:26;;;;;;;;;1.00;1.00;;;;;30.37;60.14;98338.28;4915784;29;8973;-71
2021/05/25 10:43:55;;;;;;;;;1.00;1.00;;;;;30.40;60.27;98348.34;4915986;29;8875;-71
2021/05/25 10:46:26;;;;;;;;;1.00;1.00;;;;;30.35;60.49;98339.88;4915851;29;8862;-71
2021/05/25 10:49:16;;;;;;;;;0.80;0.80;;;;;30.37;60.05;98345.66;4915872;29;8870;-71
2021/05/25 10:52:08;;;;;;;;;1.60;1.60;;;;;30.34;59.58;98346.47;4915781;29;9601;-71
2021/05/25 10:54:48;;;;;;;;;1.00;1.00;;;;;30.34;60.05;98349.22;4915687;29;8973;-71
2021/05/25 10:57:40;;;;;;;;;1.60;1.60;;;;;30.40;59.99;98356.50;4915693;29;8855;-71
2021/05/25 11:00:12;;;;;;;;;1.00;1.00;;;;;30.42;59.77;98346.00;4915689;29;8851;-71
2021/05/25 11:03:04;;;;;;;;;1.00;1.00;;;;;30.42;59.63;98343.25;4915539;29;8904;-71
2021/05/25 11:06:00;;;;;;;;;1.40;1.40;;;;;30.42;60.10;98348.72;4915988;29;8859;-71
2021/05/25 11:08:31;;;;;;;;;2.00;2.00;;;;;30.41;59.86;98349.88;4915465;29;8953;-71
2021/05/25 11:11:25;;;;;;;;;0.60;0.60;;;;;30.38;60.03;98353.44;4915512;29;8851;-71
2021/05/25 11:13:55;;;;;;;;;1.40;1.40;;;;;30.34;60.14;98349.22;4915797;29;8859;-71
2021/05/25 11:16:34;;;;;;;;;1.00;1.00;;;;;30.31;59.61;98344.59;4915437;29;9049;-71
2021/05/25 11:19:09;;;;;;;;;1.40;1.40;;;;;30.30;59.84;98351.19;4916708;29;9470;-71
2021/05/25 11:27:11;;;;;;;;;0.80;0.80;;;;;30.31;60.12;98356.22;4919284;29;8858;-71
2021/05/25 11:30:04;;;;;;;;;1.00;1.00;;;;;30.31;60.08;98355.47;4918969;29;9017;-71
2021/05/25 11:32:45;;;;;;;;;1.40;1.40;;;;;30.21;60.30;98343.53;4919284;29;8862;-70
2021/05/25 11:35:18;;;;;;;;;0.20;0.20;;;;;30.31;60.25;98358.19;4924068;29;8981;-71
2021/05/25 11:37:51;;;;;;;;;1.00;1.00;;;;;30.23;60.31;98354.00;4919941;29;8877;-71
2021/05/25 11:40:25;;;;;;;;;1.60;1.60;;;;;30.25;60.59;98359.81;4918878;29;8862;-70
2021/05/25 11:42:55;;;;;;;;;1.40;1.40;;;;;30.22;60.66;98372.28;4918678;29;8863;-70
2021/05/25 11:45:26;;;;;;;;;2.20;2.20;;;;;30.21;60.84;98369.97;4918940;29;9581;-70
2021/05/25 11:47:57;;;;;;;;;0.60;0.60;;;;;30.19;60.64;98364.94;4918713;29;8878;-71
2021/05/25 11:50:27;;;;;;;;;0.60;0.60;;;;;30.13;60.80;98380.94;4918688;29;8866;-71
2021/05/25 11:53:02;;;;;;;;;2.60;2.60;;;;;30.17;61.15;98383.59;4918513;29;9466;-71
2021/05/25 11:55:34;;;;;;;;;0.60;0.60;;;;;30.15;61.25;98388.69;4918495;29;8858;-71
2021/05/25 11:58:05;;;;;;;;;2.40;2.40;;;;;30.08;61.36;98378.66;4918450;29;8863;-71
2021/05/25 12:00:35;;;;;;;;;1.80;1.80;;;;;30.14;61.09;98400.75;4917218;29;8977;-71
2021/05/25 12:03:09;;;;;;;;;2.80;2.80;;;;;30.14;60.80;98406.97;4918305;29;8866;-71
2021/05/25 12:05:39;;;;;;;;;3.60;3.60;;;;;30.08;60.78;98400.41;4918279;29;8929;-71
2021/05/25 12:08:10;;;;;;;;;2.20;2.20;;;;;30.11;60.67;98407.75;4918341;29;8871;-71
2021/05/25 12:10:42;;;;;;;;;3.80;3.80;;;;;30.09;60.97;98409.34;4917399;29;8847;-71